»·PEaware :: SWA1034 KLAX-KPHX

SWA1034 :: KLAX-KPHX

FLIGHT INFORMATION

Flight Status: Arrived
Operator:
Southwest Airlines
More flights by this operator :: More flights under this callsign
Pilot: Kolin J. (28867)
Aircraft: BOEING 737-700
(B737)
More flights by this aircraft type
Origin: KLAX Los Angeles Intl
United States
Destination: KPHX Phoenix Sky Harbor Intl
United States
More flights between these airports :: More routes between these airports
Route: DOTSS2 CNERY BLH HYDRR1
File this flight plan on PilotEdge
Remarks:
Altitude:
(Current/Filed)
31,000ft
Speed:
(Current/Filed)
450kts
Departed: 17-May-20 10:43 PM
Arrived: 17-May-20 11:42 PM
Distance/Time
Traveled:
321nm/0:59
Distance/Time
To Go:
Arrived

Flight Plot

Page will automatically refresh every two minutes.

Flight plan parsing failed; only flown route is shown


Map Options




Map Legend


Flown Route
Filed Route
Departure Airport
Arrival Airport
Navaid (VOR, NDB)
Fix

Horizontal Profiles

Position Reports

Time Latitude Longitude Heading Altitude Ground
Speed
17-May-20 22:25 33.947884 -118.401106 183 116ft 0kts
17-May-20 22:26 33.947884 -118.401106 183 116ft 0kts
17-May-20 22:27 33.947884 -118.401106 183 116ft 0kts
17-May-20 22:28 33.947884 -118.401106 183 116ft 0kts
17-May-20 22:29 33.947884 -118.401106 183 116ft 0kts
17-May-20 22:30 33.947884 -118.401106 183 116ft 0kts
17-May-20 22:31 33.947884 -118.401106 183 116ft 0kts
17-May-20 22:32 33.947884 -118.401106 183 116ft 0kts
17-May-20 22:32 33.947884 -118.401106 183 116ft 0kts
17-May-20 22:34 33.947884 -118.401106 183 116ft 0kts
17-May-20 22:34 33.947885 -118.401106 183 116ft 0kts
17-May-20 22:36 33.948192 -118.401063 205 115ft 2kts
17-May-20 22:36 33.948445 -118.400768 247 114ft 2kts
17-May-20 22:37 33.948458 -118.400345 291 113ft 2kts
17-May-20 22:39 33.948357 -118.400149 309 113ft 0kts
17-May-20 22:39 33.948357 -118.400150 309 113ft 0kts
17-May-20 22:40 33.948357 -118.400150 309 113ft 0kts
17-May-20 22:41 33.948891 -118.400959 309 114ft 10kts
17-May-20 22:42 33.949594 -118.407322 262 120ft 106kts
17-May-20 22:43 33.945746 -118.450162 263 2107ft 186kts
17-May-20 22:44 33.939805 -118.514705 263 4799ft 237kts
17-May-20 22:45 33.933229 -118.604640 246 7753ft 280kts
17-May-20 22:46 33.864070 -118.639457 174 10769ft 302kts
17-May-20 22:47 33.775789 -118.584875 149 13341ft 375kts
17-May-20 22:48 33.693874 -118.491499 125 15858ft 407kts
17-May-20 22:49 33.655239 -118.378453 110 17971ft 427kts
17-May-20 22:50 33.644609 -118.254692 92 20031ft 448kts
17-May-20 22:51 33.644715 -118.149436 92 21699ft 461kts
17-May-20 22:52 33.644707 -118.052627 92 23198ft 472kts
17-May-20 22:53 33.644618 -117.958052 92 24629ft 482kts
17-May-20 22:54 33.644461 -117.864491 92 26021ft 491kts
17-May-20 22:55 33.633742 -117.755486 107 27654ft 491kts
17-May-20 22:56 33.606926 -117.643610 110 29373ft 494kts
17-May-20 22:57 33.577581 -117.525085 110 30940ft 502kts
17-May-20 22:58 33.544383 -117.391201 109 31013ft 518kts
17-May-20 22:59 33.515405 -117.273950 108 31008ft 515kts
17-May-20 23:00 33.503770 -117.147576 94 31011ft 523kts
17-May-20 23:01 33.501875 -117.006610 93 31014ft 521kts
17-May-20 23:02 33.499768 -116.860762 93 31015ft 520kts
17-May-20 23:03 33.497366 -116.707088 93 30924ft 522kts
17-May-20 23:04 33.494747 -116.551857 93 30851ft 523kts
17-May-20 23:05 33.491866 -116.393538 93 30816ft 522kts
17-May-20 23:06 33.489545 -116.244324 93 30805ft 522kts
17-May-20 23:07 33.487710 -116.087046 89 30806ft 523kts
17-May-20 23:08 33.521808 -115.911749 71 30808ft 529kts
17-May-20 23:09 33.571548 -115.741965 71 30818ft 528kts
17-May-20 23:10 33.612560 -115.563859 86 30823ft 525kts
17-May-20 23:11 33.612985 -115.379746 94 30827ft 521kts
17-May-20 23:12 33.608680 -115.209087 94 30847ft 522kts
17-May-20 23:13 33.604327 -115.043588 94 30853ft 513kts
17-May-20 23:14 33.599863 -114.882342 94 30854ft 508kts
17-May-20 23:15 33.587390 -114.714155 105 30857ft 504kts
17-May-20 23:16 33.553558 -114.542116 105 30855ft 504kts
17-May-20 23:17 33.519520 -114.367951 105 30856ft 504kts
17-May-20 23:18 33.487565 -114.205713 106 30853ft 503kts
17-May-20 23:19 33.451709 -114.026195 106 30457ft 510kts
17-May-20 23:20 33.416445 -113.850746 106 28105ft 463kts
17-May-20 23:21 33.381560 -113.677883 106 24593ft 469kts
17-May-20 23:22 33.345662 -113.501067 106 21199ft 441kts
17-May-20 23:23 33.315201 -113.332938 104 20604ft 442kts
17-May-20 23:24 33.288098 -113.166997 102 17524ft 408kts
17-May-20 23:25 33.275985 -113.001141 91 14926ft 389kts
17-May-20 23:26 33.280323 -112.853087 88 12659ft 376kts
17-May-20 23:27 33.313723 -112.732777 68 10552ft 348kts
17-May-20 23:28 33.352742 -112.629908 66 9492ft 315kts
17-May-20 23:29 33.388355 -112.536609 65 8094ft 308kts
17-May-20 23:30 33.420116 -112.449345 69 6750ft 284kts
17-May-20 23:31 33.428534 -112.373544 91 6008ft 273kts
17-May-20 23:32 33.428781 -112.306184 93 5092ft 222kts
17-May-20 23:33 33.429802 -112.246400 89 4168ft 191kts
17-May-20 23:34 33.431064 -112.204550 92 3459ft 162kts
17-May-20 23:35 33.430066 -112.165990 90 2847ft 159kts
17-May-20 23:36 33.430667 -112.131506 87 2647ft 159kts
17-May-20 23:37 33.430835 -112.100193 89 2184ft 157kts
17-May-20 23:38 33.430931 -112.071671 88 1948ft 164kts
17-May-20 23:39 33.430992 -112.043426 87 1485ft 147kts
17-May-20 23:40 33.431019 -112.016987 88 1120ft 134kts
17-May-20 23:41 33.431469 -112.006388 54 1126ft 10kts
17-May-20 23:42 33.432143 -112.003525 89 1124ft 25kts
17-May-20 23:43 33.432705 -112.000270 63 1125ft 11kts
17-May-20 23:44 33.433812 -111.998232 10 1124ft 15kts
17-May-20 23:45 33.434410 -111.997346 85 1125ft 0kts
17-May-20 23:46 33.434410 -111.997346 85 1125ft 0kts
17-May-20 23:47 33.434410 -111.997346 85 1125ft 0kts
17-May-20 23:48 33.434410 -111.997346 85 1125ft 0kts

Navigation Log

Ident Type
Flight plan parsing failed, navigation log unavailable